NCAR-RAP Real-Time Weather Data

Output produced by METARs form (10 April 2020  07:27 UTC)
found at http://weather.rap.ucar.edu/surface/
 
KWMC 100656Z AUTO 22007KT 10SM BKN120 08/02 A3008 RMK AO2 SLP160 T00780017
KWMC 100556Z AUTO 06006KT 10SM FEW070 SCT120 07/01 A3006 RMK AO2 SLP159 T00720011 10183 20067 51017
KWMC 100456Z AUTO 00000KT 10SM CLR 08/01 A3006 RMK AO2 SLP158 T00780006
KWMC 100356Z AUTO 15011KT 10SM OVC100 09/01 A3004 RMK AO2 PK WND 16030/0301 SLP154 T00890011
KWMC 100256Z AUTO 17021G28KT 10SM OVC100 09/01 A3001 RMK AO2 PK WND 17032/0204 SLP144 T00940011 53031
KWMC 100156Z AUTO 16026G33KT 8SM FEW110 11/02 A2997 RMK AO2 PK WND 16034/0115 SLP130 T01110017
KWMC 100056Z AUTO 16023G30KT 7SM CLR 14/01 A2992 RMK AO2 PK WND 15034/0032 SLP111 T01440011
KWMC 092356Z AUTO 15019G24KT 10SM CLR 19/M01 A2990 RMK AO2 SLP101 T01891006 10211 20167 56014
KWMC 092256Z AUTO 17012G19KT 10SM CLR 20/M01 A2991 RMK AO2 SLP099 T02001006
KWMC 092156Z AUTO 17016G21KT 10SM FEW090 20/M01 A2993 RMK AO2 SLP106 T02001006
KWMC 092056Z AUTO 00000KT 10SM CLR 20/M04 A2995 RMK AO2 SLP111 T02001039 57017
KWMC 091956Z AUTO 18009KT 10SM CLR 19/M04 A2997 RMK AO2 SLP117 T01941039
KWMC 091856Z AUTO VRB03KT 10SM CLR 19/M04 A2999 RMK AO2 SLP125 T01891044
KWMC 091756Z AUTO 06005KT 10SM CLR 17/M05 A3001 RMK AO2 SLP131 T01721050 10172 20072 50005
KWMC 091656Z AUTO 04006KT 10SM CLR 15/M05 A3001 RMK AO2 SLP134 T01501050
KWMC 091556Z AUTO 09009KT 10SM CLR 13/M05 A3001 RMK AO2 SLP134 T01331050
KWMC 091456Z AUTO 06008KT 10SM CLR 12/M06 A2999 RMK AO2 SLP129 T01171056 53006
KWMC 091356Z AUTO 04011KT 10SM CLR 09/M06 A2998 RMK AO2 SLP123 T00941056
KWMC 091256Z AUTO 05013KT 10SM CLR 09/M06 A2997 RMK AO2 SLP120 T00891056
KWMC 091156Z AUTO 36007KT 310V030 10SM CLR 08/M04 A2997 RMK AO2 SLP119 T00781044 10133 20072 55001
KWMC 091056Z AUTO 00000KT 10SM CLR 09/M04 A2996 RMK AO2 PK WND 03028/1010 SLP118 T00941039